Trixenbua

Alter:
Land:
Schnopser seit: 17.05.2018
Fairness Rating: 100%
Gespielte Bummerl: 1627
Davon gewonnen: 815
Siegesrate: 50%
ELO: 1101

Turnierteilnahmen

Bisher noch kein Turnier gespielt


Die letzten 25 gespielten Bummerl

Zeit Gegner Ergebnis Ende Credits Elo
14:23:07 am 19.09.2018 kristina 5:7 normal - 1101 (-12)
05:05:23 am 19.09.2018 Markus 8:6 normal - 1113 (12)
04:58:51 am 19.09.2018 Eagle79 5:7 normal - 1101 (-11)
04:44:35 am 19.09.2018 Robi. 1969 0:7 normal - 1112 (-15)
02:27:34 am 19.09.2018 JoHannes 3:8 normal - 1127 (-10)
02:21:48 am 19.09.2018 max 7:4 normal - 1137 (9)
17:02:20 am 18.09.2018 SM-J500FN 7:6 normal - 1128 (10)
16:52:47 am 18.09.2018 sabine 3:7 normal - 1118 (-13)
03:33:48 am 18.09.2018 Holyman 7:3 normal - 1131 (8)
03:28:12 am 18.09.2018 repsol 8:2 normal - 1123 (10)
01:40:12 am 18.09.2018 kristina 7:3 normal - 1113 (9)
01:36:03 am 18.09.2018 kristina 7:4 normal - 1104 (9)
00:59:02 am 18.09.2018 Vini B Au 1:7 normal - 1095 (-10)
00:23:31 am 18.09.2018 ☆JOKER☆ 5:7 normal - 1105 (-10)
00:19:54 am 18.09.2018 ☆JOKER☆ 7:3 normal - 1115 (10)
04:34:08 am 17.09.2018 Florin Bogdan 0:9 normal - 1105 (-15)
04:32:01 am 17.09.2018 SM-G950F 6:7 normal - 1120 (-9)
00:59:16 am 17.09.2018 MistaNullSkillZ 8:6 normal - 1129 (10)
00:32:12 am 17.09.2018 josip HR 2:7 normal - 1119 (-9)
23:13:51 am 16.09.2018 i da Wirt 8:3 normal - 1128 (9)
22:57:38 am 16.09.2018 SEPPAL/K 7:6 normal - 1119 (12)
14:28:21 am 16.09.2018 mæx 8:6 normal - 1107 (11)
14:22:56 am 16.09.2018 mæx 8:4 normal - 1096 (11)
13:32:48 am 16.09.2018 Speedy 2:7 normal - 1085 (-10)
06:59:37 am 16.09.2018 Devid 4:7 normal - 1095 (-9)